createdAt,value
2023-12-30T00:00:28.166Z,80.04
2023-12-30T00:03:15.853Z,80.21
2023-12-30T00:05:44.310Z,80.17
2023-12-30T00:08:11.987Z,80.44
2023-12-30T00:10:40.029Z,80.75
2023-12-30T00:13:07.849Z,80.33
2023-12-30T00:15:36.095Z,80.73
2023-12-30T00:18:04.634Z,80.91
2023-12-30T00:20:32.405Z,81.03
2023-12-30T00:23:00.905Z,81.02
2023-12-30T00:25:28.831Z,81.13
2023-12-30T00:27:57.628Z,80.96
2023-12-30T00:30:25.401Z,81.04
2023-12-30T00:32:53.161Z,81.02
2023-12-30T00:35:20.899Z,80.84
2023-12-30T00:37:48.611Z,81.05
2023-12-30T00:40:24.230Z,80.90
2023-12-30T00:42:54.797Z,80.92
2023-12-30T00:45:22.947Z,80.89
2023-12-30T00:47:50.856Z,80.65
2023-12-30T00:50:18.658Z,80.91
2023-12-30T00:52:46.397Z,80.77
2023-12-30T00:55:14.683Z,80.63
2023-12-30T00:57:42.348Z,80.78
2023-12-30T01:00:10.621Z,80.55
2023-12-30T01:02:38.641Z,80.74
2023-12-30T01:05:06.633Z,80.58
2023-12-30T01:07:35.671Z,80.62
2023-12-30T01:10:03.558Z,80.71
2023-12-30T01:12:31.271Z,80.96
2023-12-30T01:14:58.955Z,80.61
2023-12-30T01:17:27.519Z,80.35
2023-12-30T01:19:55.397Z,80.59
2023-12-30T01:22:23.078Z,80.67
2023-12-30T01:24:50.898Z,80.59
2023-12-30T01:27:18.663Z,80.75
2023-12-30T01:29:46.925Z,80.78
2023-12-30T01:32:14.683Z,80.91
2023-12-30T01:34:42.387Z,80.75
2023-12-30T01:37:10.216Z,80.65
2023-12-30T01:39:37.947Z,80.77
2023-12-30T01:42:05.882Z,80.68
2023-12-30T01:44:33.684Z,80.72
2023-12-30T01:47:01.444Z,80.81
2023-12-30T01:49:29.539Z,81.02
2023-12-30T01:51:57.759Z,80.82
2023-12-30T01:54:26.868Z,80.86
2023-12-30T01:56:55.090Z,80.92
2023-12-30T01:59:23.852Z,80.81
2023-12-30T02:01:51.949Z,80.56
2023-12-30T02:04:19.703Z,80.44
2023-12-30T02:06:47.592Z,80.41
2023-12-30T02:09:15.704Z,80.39
2023-12-30T02:11:44.574Z,80.21
2023-12-30T02:14:31.960Z,80.32
2023-12-30T02:17:00.278Z,80.41
2023-12-30T02:19:28.341Z,80.21
2023-12-30T02:21:56.844Z,80.46
2023-12-30T02:24:24.675Z,80.39
2023-12-30T02:26:52.418Z,80.47
2023-12-30T02:29:20.148Z,80.40
2023-12-30T02:31:48.428Z,80.61
2023-12-30T02:34:18.883Z,80.64
2023-12-30T02:36:48.429Z,80.62
2023-12-30T02:39:16.418Z,80.66
2023-12-30T02:41:44.279Z,80.55
2023-12-30T02:44:12.050Z,80.51
2023-12-30T02:46:39.771Z,80.18
2023-12-30T02:49:07.509Z,80.38
2023-12-30T02:51:35.354Z,80.19
2023-12-30T02:54:03.584Z,79.90
2023-12-30T02:56:31.265Z,79.62
2023-12-30T02:59:00.976Z,79.20
2023-12-30T03:01:31.174Z,79.01
2023-12-30T03:04:01.117Z,79.02
2023-12-30T03:06:29.068Z,78.84
2023-12-30T03:08:56.923Z,78.54
2023-12-30T03:11:25.086Z,78.16
2023-12-30T03:13:53.046Z,77.56
2023-12-30T03:16:20.917Z,77.58
2023-12-30T03:18:48.733Z,77.42
2023-12-30T03:21:18.215Z,77.13
2023-12-30T03:23:45.859Z,76.51
2023-12-30T03:26:13.532Z,76.35
2023-12-30T03:28:41.291Z,76.17
2023-12-30T03:31:09.061Z,75.99
2023-12-30T03:33:37.054Z,76.15
2023-12-30T03:36:05.026Z,76.06
2023-12-30T03:38:32.662Z,75.40
2023-12-30T03:41:00.478Z,75.18
2023-12-30T03:43:28.175Z,74.90
2023-12-30T03:45:56.585Z,74.96
2023-12-30T03:48:24.352Z,74.93
2023-12-30T03:50:52.061Z,74.56
2023-12-30T03:53:19.979Z,74.41
2023-12-30T03:55:48.088Z,74.44
2023-12-30T03:58:15.993Z,73.88
2023-12-30T04:00:43.769Z,74.22
2023-12-30T04:03:11.543Z,74.06
2023-12-30T04:05:39.344Z,74.22
2023-12-30T04:08:07.168Z,73.86
2023-12-30T04:10:35.093Z,74.00
2023-12-30T04:13:03.322Z,73.82
2023-12-30T04:15:32.226Z,73.89
2023-12-30T04:17:59.934Z,73.35
2023-12-30T04:20:27.630Z,73.06
2023-12-30T04:22:56.051Z,73.12
2023-12-30T04:25:23.836Z,73.35
2023-12-30T04:27:51.575Z,73.43
2023-12-30T04:30:19.595Z,73.45
2023-12-30T04:32:47.431Z,73.22
2023-12-30T04:35:15.243Z,73.30
2023-12-30T04:37:43.045Z,73.41
2023-12-30T04:40:11.168Z,73.10
2023-12-30T04:42:38.959Z,73.02
2023-12-30T04:45:13.584Z,73.08
2023-12-30T04:47:42.167Z,73.13
2023-12-30T04:50:10.317Z,73.29
2023-12-30T04:52:38.039Z,73.04
2023-12-30T04:55:06.372Z,73.21
2023-12-30T04:57:34.100Z,72.92
2023-12-30T05:00:01.793Z,73.12
2023-12-30T05:02:29.538Z,72.79
2023-12-30T05:04:57.237Z,73.38
2023-12-30T05:07:26.275Z,72.92
2023-12-30T05:09:54.117Z,73.21
2023-12-30T05:12:21.815Z,73.17
2023-12-30T05:14:49.564Z,73.34
2023-12-30T05:17:17.226Z,73.24
2023-12-30T05:19:44.995Z,73.49
2023-12-30T05:22:12.824Z,73.71
2023-12-30T05:24:40.613Z,73.84
2023-12-30T05:27:08.335Z,74.11
2023-12-30T05:29:36.077Z,74.16
2023-12-30T05:32:05.266Z,74.35
2023-12-30T05:34:32.982Z,74.78
2023-12-30T05:37:00.725Z,75.06
2023-12-30T05:39:28.430Z,75.44
2023-12-30T05:41:56.205Z,75.14
2023-12-30T05:44:23.819Z,75.21
2023-12-30T05:46:54.524Z,75.21
2023-12-30T05:49:23.176Z,75.38
2023-12-30T05:51:51.376Z,75.30
2023-12-30T05:54:19.048Z,75.70
2023-12-30T05:56:46.702Z,76.63
2023-12-30T05:59:14.744Z,76.48
2023-12-30T06:01:46.746Z,76.44
2023-12-30T06:04:15.383Z,76.28
2023-12-30T06:06:44.105Z,76.29
2023-12-30T06:09:12.575Z,76.03
2023-12-30T06:11:40.425Z,75.87
2023-12-30T06:14:08.203Z,75.65
2023-12-30T06:16:36.256Z,75.85
2023-12-30T06:19:04.110Z,75.61
2023-12-30T06:21:31.825Z,75.84
2023-12-30T06:23:59.458Z,76.36
2023-12-30T06:26:27.110Z,77.20
2023-12-30T06:28:54.926Z,77.34
2023-12-30T06:31:22.724Z,77.62
2023-12-30T06:33:50.467Z,78.50
2023-12-30T06:36:22.697Z,81.72
2023-12-30T06:38:53.461Z,84.17
2023-12-30T06:41:21.247Z,84.26
2023-12-30T06:43:49.305Z,86.08
2023-12-30T06:46:21.168Z,84.57
2023-12-30T06:48:48.973Z,83.25
2023-12-30T06:51:16.771Z,83.42
2023-12-30T06:53:44.470Z,83.35
2023-12-30T06:56:12.281Z,83.68
2023-12-30T06:58:40.105Z,84.11
2023-12-30T07:01:07.749Z,84.04
2023-12-30T07:03:35.466Z,84.52
2023-12-30T07:06:03.301Z,85.06
2023-12-30T07:08:30.933Z,84.56
2023-12-30T07:10:58.761Z,84.30
2023-12-30T07:13:26.449Z,84.59
2023-12-30T07:15:54.175Z,84.53
2023-12-30T07:18:22.412Z,84.97
2023-12-30T07:20:50.160Z,84.82
2023-12-30T07:23:17.777Z,84.78
2023-12-30T07:25:45.437Z,84.49
2023-12-30T07:28:13.332Z,84.36
2023-12-30T07:30:41.084Z,83.71
2023-12-30T07:33:09.165Z,82.87
2023-12-30T07:35:37.013Z,82.40
2023-12-30T07:38:04.770Z,82.44
2023-12-30T07:40:32.551Z,82.15
2023-12-30T07:43:00.588Z,82.04
2023-12-30T07:45:28.397Z,81.83
2023-12-30T07:47:56.662Z,81.64
2023-12-30T07:50:24.813Z,81.27
2023-12-30T07:52:52.507Z,81.12
2023-12-30T07:55:20.331Z,81.21
2023-12-30T07:57:48.048Z,80.98
2023-12-30T08:00:16.111Z,80.82
2023-12-30T08:02:45.511Z,80.45
2023-12-30T08:05:13.493Z,79.92
2023-12-30T08:07:41.361Z,80.11
2023-12-30T08:10:09.273Z,80.13
2023-12-30T08:12:37.963Z,79.80
2023-12-30T08:15:06.394Z,78.95
2023-12-30T08:17:34.259Z,77.87
2023-12-30T08:20:02.618Z,77.01
2023-12-30T08:22:30.927Z,76.87
2023-12-30T08:24:59.622Z,76.46
2023-12-30T08:27:27.874Z,75.73
2023-12-30T08:29:56.136Z,75.41
2023-12-30T08:32:24.045Z,75.61
2023-12-30T08:34:52.311Z,75.73
2023-12-30T08:37:20.260Z,75.48
2023-12-30T08:39:48.544Z,75.78
2023-12-30T08:42:16.398Z,75.88
2023-12-30T08:44:46.924Z,75.95
2023-12-30T08:47:16.570Z,76.46
2023-12-30T08:49:44.515Z,76.81
2023-12-30T08:52:12.290Z,77.21
2023-12-30T08:54:41.583Z,77.84
2023-12-30T08:57:09.290Z,78.38
2023-12-30T08:59:37.034Z,79.36
2023-12-30T09:02:04.992Z,80.47
2023-12-30T09:04:32.898Z,80.62
2023-12-30T09:07:00.668Z,81.34
2023-12-30T09:09:28.388Z,81.74
2023-12-30T09:11:56.037Z,82.19
2023-12-30T09:14:25.173Z,83.05
2023-12-30T09:16:53.233Z,83.46
2023-12-30T09:19:21.093Z,83.32
2023-12-30T09:21:48.820Z,84.33
2023-12-30T09:24:16.572Z,85.44
2023-12-30T09:26:44.256Z,85.02
2023-12-30T09:29:11.943Z,84.50
2023-12-30T09:31:39.607Z,84.93
2023-12-30T09:34:08.169Z,85.11
2023-12-30T09:36:35.969Z,84.48
2023-12-30T09:39:05.224Z,84.90
2023-12-30T09:41:33.202Z,84.41
2023-12-30T09:44:01.993Z,84.24
2023-12-30T09:46:30.444Z,84.15
2023-12-30T09:48:59.637Z,83.96
2023-12-30T09:51:28.270Z,84.09
2023-12-30T09:53:56.418Z,83.81
2023-12-30T09:56:25.730Z,84.04
2023-12-30T09:58:56.804Z,83.69
2023-12-30T10:01:25.736Z,83.62
2023-12-30T10:03:53.589Z,83.42
2023-12-30T10:06:22.943Z,83.15
2023-12-30T10:08:50.901Z,82.99
2023-12-30T10:11:18.748Z,82.67
2023-12-30T10:13:46.560Z,82.15
2023-12-30T10:16:16.342Z,81.97
2023-12-30T10:18:44.274Z,80.75
2023-12-30T10:21:12.124Z,79.58
2023-12-30T10:23:39.871Z,79.25
2023-12-30T10:26:07.584Z,78.66
2023-12-30T10:28:36.056Z,78.14
2023-12-30T10:31:05.485Z,78.02
2023-12-30T10:33:34.643Z,77.55
2023-12-30T10:36:06.256Z,77.49
2023-12-30T10:38:35.971Z,77.66
2023-12-30T10:41:03.796Z,77.64
2023-12-30T10:43:31.473Z,78.12
2023-12-30T10:46:04.399Z,78.00
2023-12-30T10:48:34.364Z,77.28
2023-12-30T10:51:03.154Z,76.86
2023-12-30T10:53:41.056Z,76.89
2023-12-30T10:56:10.941Z,76.68
2023-12-30T10:58:41.435Z,76.39
2023-12-30T11:01:10.746Z,76.18
2023-12-30T11:03:38.994Z,76.61
2023-12-30T11:06:25.008Z,76.22
2023-12-30T11:08:54.189Z,76.15
2023-12-30T11:11:23.980Z,75.93
2023-12-30T11:13:58.216Z,76.38
2023-12-30T11:16:26.837Z,76.06
2023-12-30T11:18:57.428Z,76.30
2023-12-30T11:21:42.093Z,76.24
2023-12-30T11:24:11.993Z,76.34
2023-12-30T11:26:43.722Z,76.14
2023-12-30T11:29:15.900Z,76.17
2023-12-30T11:31:45.606Z,75.57
2023-12-30T11:34:17.837Z,76.02
2023-12-30T11:36:48.072Z,76.35
2023-12-30T11:39:24.619Z,75.54
2023-12-30T11:41:55.260Z,74.42
2023-12-30T11:44:23.212Z,75.80
2023-12-30T11:46:51.280Z,77.33
2023-12-30T11:49:24.182Z,78.98
2023-12-30T11:52:01.357Z,79.97
2023-12-30T11:54:29.136Z,80.87
2023-12-30T11:56:56.801Z,82.41
2023-12-30T11:59:24.451Z,82.91
2023-12-30T12:01:52.769Z,82.79
2023-12-30T12:04:20.536Z,83.42
2023-12-30T12:06:48.295Z,84.24
2023-12-30T12:09:15.923Z,86.12
2023-12-30T12:11:43.554Z,85.93
2023-12-30T12:14:11.561Z,85.96
2023-12-30T12:16:40.589Z,86.05
2023-12-30T12:19:08.685Z,86.37
2023-12-30T12:21:37.530Z,85.68
2023-12-30T12:24:06.479Z,86.32
2023-12-30T12:26:34.135Z,86.35
2023-12-30T12:29:02.063Z,86.22
2023-12-30T12:31:33.130Z,86.62
2023-12-30T12:34:20.212Z,86.50
2023-12-30T12:36:48.828Z,87.17
2023-12-30T12:39:18.105Z,87.01
2023-12-30T12:41:46.505Z,86.53
2023-12-30T12:44:14.281Z,86.61
2023-12-30T12:46:42.612Z,86.92
2023-12-30T12:49:10.618Z,87.33
2023-12-30T12:51:40.397Z,87.15
2023-12-30T12:54:08.321Z,87.05
2023-12-30T12:56:36.483Z,87.06
2023-12-30T12:59:04.154Z,86.99
2023-12-30T13:01:32.159Z,87.21
2023-12-30T13:04:00.103Z,87.02
2023-12-30T13:06:28.408Z,86.84
2023-12-30T13:08:57.836Z,87.32
2023-12-30T13:11:29.580Z,86.94
2023-12-30T13:13:57.623Z,86.82
2023-12-30T13:16:25.555Z,86.56
2023-12-30T13:18:54.213Z,86.90
2023-12-30T13:21:21.904Z,86.91
2023-12-30T13:23:51.415Z,87.09
2023-12-30T13:26:22.180Z,87.10
2023-12-30T13:28:50.034Z,87.03
2023-12-30T13:31:23.173Z,86.99
2023-12-30T13:33:54.711Z,87.28
2023-12-30T13:36:22.514Z,86.88
2023-12-30T13:39:00.321Z,86.90
2023-12-30T13:41:28.319Z,86.48
2023-12-30T13:43:56.068Z,86.09
2023-12-30T13:46:33.098Z,86.00
2023-12-30T13:49:10.722Z,85.96
2023-12-30T13:51:42.953Z,86.03
2023-12-30T13:54:11.437Z,85.85
2023-12-30T13:56:43.475Z,85.81
2023-12-30T13:59:13.462Z,85.87
2023-12-30T14:01:41.428Z,85.81
2023-12-30T14:04:09.625Z,85.58
2023-12-30T14:06:40.344Z,85.40
2023-12-30T14:09:38.706Z,85.36
2023-12-30T14:12:08.153Z,85.21
2023-12-30T14:14:42.777Z,85.23
2023-12-30T14:17:10.985Z,85.18
2023-12-30T14:19:39.658Z,85.24
2023-12-30T14:22:09.054Z,85.32
2023-12-30T14:24:36.910Z,85.42
2023-12-30T14:27:04.983Z,85.45
2023-12-30T14:29:32.803Z,85.50
2023-12-30T14:32:00.556Z,85.50
2023-12-30T14:34:28.326Z,85.67
2023-12-30T14:36:56.177Z,85.83
2023-12-30T14:39:23.889Z,85.87
2023-12-30T14:41:51.630Z,85.97
2023-12-30T14:44:19.292Z,86.18
2023-12-30T14:46:47.418Z,86.20
2023-12-30T14:49:15.591Z,86.43
2023-12-30T14:51:43.329Z,87.03
2023-12-30T14:54:11.153Z,87.36
2023-12-30T14:56:38.829Z,87.42
2023-12-30T14:59:07.046Z,87.66
2023-12-30T15:01:34.830Z,87.79
2023-12-30T15:04:04.558Z,87.86
2023-12-30T15:06:32.448Z,87.90
2023-12-30T15:09:00.233Z,87.69
2023-12-30T15:11:30.633Z,87.75
2023-12-30T15:13:59.193Z,87.70
2023-12-30T15:16:26.927Z,87.26
2023-12-30T15:18:55.550Z,87.27
2023-12-30T15:21:23.445Z,87.39
2023-12-30T15:23:51.154Z,87.10
2023-12-30T15:26:18.921Z,87.09
2023-12-30T15:28:46.684Z,87.18
2023-12-30T15:31:14.701Z,87.03
2023-12-30T15:33:42.668Z,86.97
2023-12-30T15:36:11.216Z,87.11
2023-12-30T15:38:39.518Z,87.37
2023-12-30T15:41:07.267Z,87.10
2023-12-30T15:43:35.047Z,87.27
2023-12-30T15:46:03.876Z,87.47
2023-12-30T15:48:31.777Z,87.13
2023-12-30T15:50:59.659Z,87.15
2023-12-30T15:53:27.532Z,87.27
2023-12-30T15:55:55.955Z,87.39
2023-12-30T15:58:23.734Z,87.45
2023-12-30T16:00:52.560Z,87.61
2023-12-30T16:03:21.068Z,87.51
2023-12-30T16:05:49.379Z,87.43
2023-12-30T16:08:17.602Z,87.28
2023-12-30T16:10:46.165Z,87.50
2023-12-30T16:13:14.606Z,87.14
2023-12-30T16:15:43.941Z,87.17
2023-12-30T16:18:11.725Z,86.82
2023-12-30T16:20:39.587Z,86.94
2023-12-30T16:23:08.379Z,86.92
2023-12-30T16:25:37.396Z,86.81
2023-12-30T16:28:05.539Z,86.59
2023-12-30T16:30:33.333Z,86.64
2023-12-30T16:33:01.705Z,86.38
2023-12-30T16:35:29.801Z,86.46
2023-12-30T16:37:57.523Z,86.23
2023-12-30T16:40:28.320Z,86.26
2023-12-30T16:42:56.090Z,86.07
2023-12-30T16:45:23.719Z,85.97
2023-12-30T16:47:51.414Z,85.97
2023-12-30T16:50:19.931Z,85.67
2023-12-30T16:52:50.343Z,85.74
2023-12-30T16:55:18.107Z,85.38
2023-12-30T16:57:47.003Z,84.91
2023-12-30T17:00:16.708Z,85.08
2023-12-30T17:02:44.435Z,84.83
2023-12-30T17:05:12.157Z,84.54
2023-12-30T17:07:39.984Z,84.15
2023-12-30T17:10:08.474Z,84.24
2023-12-30T17:12:36.151Z,84.20
2023-12-30T17:15:04.745Z,83.92
2023-12-30T17:17:33.050Z,84.02
2023-12-30T17:20:00.762Z,83.96
2023-12-30T17:22:29.571Z,83.94
2023-12-30T17:24:57.286Z,83.77
2023-12-30T17:27:26.780Z,83.80
2023-12-30T17:29:55.300Z,83.82
2023-12-30T17:32:23.018Z,84.00
2023-12-30T17:34:50.772Z,83.69
2023-12-30T17:37:18.739Z,83.89
2023-12-30T17:39:46.417Z,83.79
2023-12-30T17:42:14.375Z,83.71
2023-12-30T17:44:42.282Z,83.78
2023-12-30T17:47:11.604Z,83.76
2023-12-30T17:49:39.334Z,83.58
2023-12-30T17:52:07.223Z,83.70
2023-12-30T17:54:35.276Z,83.61
2023-12-30T17:57:04.020Z,83.30
2023-12-30T17:59:31.688Z,83.50
2023-12-30T18:02:00.453Z,83.34
2023-12-30T18:04:28.226Z,83.41
2023-12-30T18:06:56.045Z,82.76
2023-12-30T18:09:23.732Z,82.81
2023-12-30T18:11:51.461Z,82.63
2023-12-30T18:14:23.145Z,82.21
2023-12-30T18:16:51.012Z,82.59
2023-12-30T18:19:19.267Z,81.86
2023-12-30T18:21:47.047Z,82.50
2023-12-30T18:24:14.996Z,82.14
2023-12-30T18:26:43.308Z,81.64
2023-12-30T18:29:10.968Z,81.92
2023-12-30T18:31:38.712Z,81.14
2023-12-30T18:34:06.461Z,81.30
2023-12-30T18:36:34.185Z,80.87
2023-12-30T18:39:01.885Z,81.08
2023-12-30T18:41:29.780Z,80.94
2023-12-30T18:43:57.451Z,80.55
2023-12-30T18:46:25.282Z,79.77
2023-12-30T18:48:53.110Z,79.65
2023-12-30T18:51:20.760Z,80.27
2023-12-30T18:53:48.474Z,79.84
2023-12-30T18:56:16.188Z,80.21
2023-12-30T18:58:46.209Z,80.31
2023-12-30T19:01:14.435Z,80.38
2023-12-30T19:03:42.190Z,80.58
2023-12-30T19:06:10.075Z,80.59
2023-12-30T19:08:39.425Z,80.65
2023-12-30T19:11:07.284Z,80.45
2023-12-30T19:13:35.454Z,80.36
2023-12-30T19:16:03.678Z,79.97
2023-12-30T19:18:31.495Z,80.03
2023-12-30T19:20:59.524Z,79.86
2023-12-30T19:23:27.463Z,79.77
2023-12-30T19:25:55.139Z,79.93
2023-12-30T19:28:22.948Z,80.20
2023-12-30T19:30:51.225Z,79.80
2023-12-30T19:33:19.403Z,80.06
2023-12-30T19:35:47.676Z,79.94
2023-12-30T19:38:17.339Z,79.36
2023-12-30T19:40:47.032Z,79.56
2023-12-30T19:43:15.542Z,79.74
2023-12-30T19:45:43.638Z,79.65
2023-12-30T19:48:11.577Z,79.43
2023-12-30T19:50:39.506Z,78.99
2023-12-30T19:53:07.160Z,79.30
2023-12-30T19:55:34.859Z,78.86
2023-12-30T19:58:02.799Z,78.97
2023-12-30T20:00:30.537Z,79.24
2023-12-30T20:02:58.348Z,78.85
2023-12-30T20:05:26.130Z,78.25
2023-12-30T20:07:54.017Z,78.45
2023-12-30T20:10:21.903Z,78.22
2023-12-30T20:12:49.709Z,78.58
2023-12-30T20:15:18.070Z,78.43
2023-12-30T20:17:46.430Z,78.53
2023-12-30T20:20:14.220Z,78.30
2023-12-30T20:22:42.096Z,78.51
2023-12-30T20:25:10.225Z,78.30
2023-12-30T20:27:37.893Z,78.50
2023-12-30T20:30:06.340Z,78.39
2023-12-30T20:32:35.920Z,78.35
2023-12-30T20:35:04.497Z,78.27
2023-12-30T20:37:32.232Z,78.43
2023-12-30T20:40:00.010Z,78.46
2023-12-30T20:42:30.285Z,78.36
2023-12-30T20:44:58.017Z,78.29
2023-12-30T20:47:25.765Z,78.38
2023-12-30T20:49:53.568Z,78.28
2023-12-30T20:52:22.304Z,78.31
2023-12-30T20:54:50.149Z,78.31
2023-12-30T20:57:17.811Z,78.34
2023-12-30T20:59:45.539Z,78.25
2023-12-30T21:02:16.299Z,78.09
2023-12-30T21:04:44.432Z,78.45
2023-12-30T21:07:12.215Z,78.32
2023-12-30T21:09:39.979Z,78.62
2023-12-30T21:12:08.131Z,78.48
2023-12-30T21:14:36.657Z,78.57
2023-12-30T21:17:05.300Z,78.66
2023-12-30T21:19:33.541Z,78.49
2023-12-30T21:22:02.235Z,78.92
2023-12-30T21:24:30.062Z,78.85
2023-12-30T21:26:57.953Z,78.73
2023-12-30T21:29:25.635Z,78.83
2023-12-30T21:31:53.401Z,78.78
2023-12-30T21:34:21.345Z,78.83
2023-12-30T21:36:49.135Z,78.70
2023-12-30T21:39:17.708Z,78.94
2023-12-30T21:41:45.513Z,78.57
2023-12-30T21:44:13.180Z,78.63
2023-12-30T21:46:45.255Z,79.27
2023-12-30T21:49:16.347Z,80.43
2023-12-30T21:51:45.088Z,81.91
2023-12-30T21:54:14.075Z,81.64
2023-12-30T21:56:42.514Z,82.13
2023-12-30T21:59:10.543Z,83.03
2023-12-30T22:01:38.737Z,82.44
2023-12-30T22:04:06.719Z,82.61
2023-12-30T22:06:34.477Z,83.29
2023-12-30T22:09:02.687Z,83.04
2023-12-30T22:11:30.831Z,83.49
2023-12-30T22:13:58.736Z,83.31
2023-12-30T22:16:26.636Z,83.82
2023-12-30T22:18:54.444Z,84.80
2023-12-30T22:21:22.536Z,84.07
2023-12-30T22:23:50.248Z,84.61
2023-12-30T22:26:18.947Z,84.56
2023-12-30T22:28:46.829Z,84.88
2023-12-30T22:31:14.748Z,84.80
2023-12-30T22:33:43.258Z,84.86
2023-12-30T22:36:11.096Z,84.14
2023-12-30T22:38:39.070Z,83.92
2023-12-30T22:41:06.814Z,83.81
2023-12-30T22:43:34.936Z,84.18
2023-12-30T22:46:03.146Z,83.95
2023-12-30T22:48:30.878Z,84.38
2023-12-30T22:50:58.645Z,84.19
2023-12-30T22:53:26.298Z,84.41
2023-12-30T22:55:54.060Z,84.30
2023-12-30T22:58:21.827Z,84.16
2023-12-30T23:00:52.187Z,84.19
2023-12-30T23:03:20.171Z,85.27
2023-12-30T23:05:48.099Z,84.71
2023-12-30T23:08:15.884Z,84.73
2023-12-30T23:10:43.728Z,85.64
2023-12-30T23:13:11.483Z,85.55
2023-12-30T23:15:39.136Z,86.21
2023-12-30T23:18:06.953Z,87.48
2023-12-30T23:20:34.599Z,87.24
2023-12-30T23:23:02.756Z,87.67
2023-12-30T23:25:30.725Z,86.02
2023-12-30T23:27:58.397Z,86.26
2023-12-30T23:30:26.108Z,86.82
2023-12-30T23:32:53.925Z,86.35
2023-12-30T23:35:21.659Z,86.36
2023-12-30T23:37:49.508Z,86.10
2023-12-30T23:40:17.307Z,85.80
2023-12-30T23:42:45.028Z,85.73
2023-12-30T23:45:12.909Z,86.22
2023-12-30T23:47:40.610Z,86.59
2023-12-30T23:50:09.040Z,86.62
2023-12-30T23:52:36.735Z,87.55
2023-12-30T23:55:04.813Z,86.91
2023-12-30T23:57:34.689Z,88.31
